Time,TemperatureF,DewpointF,PressureIn,WindDirection,WindDirectionDegrees,WindSpeedMPH,WindSpeedGustMPH,Humidity,HourlyPrecipIn,Conditions,Clouds,dailyrainin,SoftwareType,DateUTC
2013-04-05 00:02:00,41.5,26.0,30.02,South,189,1.0,-999.0,54,-99.99,,,0.01,weatherlink.com 1.10,2013-04-05 04:02:00,
2013-04-05 00:17:00,41.1,26.0,30.01,SW,225,3.0,-999.0,55,-99.99,,,0.01,weatherlink.com 1.10,2013-04-05 04:17:00,
2013-04-05 00:32:00,40.9,27.0,30.01,SSW,207,5.0,-999.0,57,-99.99,,,0.01,weatherlink.com 1.10,2013-04-05 04:32:00,
2013-04-05 00:47:00,40.5,27.0,30.00,South,174,9.0,-999.0,60,-99.99,,,0.01,weatherlink.com 1.10,2013-04-05 04:47:00,
2013-04-05 01:02:00,40.3,28.0,30.00,SSE,165,7.0,-999.0,61,-99.99,,,0.01,weatherlink.com 1.10,2013-04-05 05:02:00,
2013-04-05 01:17:00,39.9,28.0,29.99,SSE,167,6.0,-999.0,62,-99.99,,,0.01,weatherlink.com 1.10,2013-04-05 05:17:00,
2013-04-05 01:33:00,39.5,28.0,29.98,SSW,209,4.0,-999.0,64,-99.99,,,0.01,weatherlink.com 1.10,2013-04-05 05:33:00,
2013-04-05 02:03:00,39.0,29.0,29.98,SSW,204,4.0,-999.0,67,-99.99,,,0.01,weatherlink.com 1.10,2013-04-05 06:03:00,
2013-04-05 02:18:00,38.8,29.0,29.97,SW,219,3.0,-999.0,69,-99.99,,,0.01,weatherlink.com 1.10,2013-04-05 06:18:00,
2013-04-05 02:33:00,38.6,30.0,29.96,SSW,200,1.0,-999.0,71,-99.99,,,0.01,weatherlink.com 1.10,2013-04-05 06:33:00,
2013-04-05 02:48:00,38.3,30.0,29.96,SW,214,2.0,-999.0,72,-99.99,,,0.01,weatherlink.com 1.10,2013-04-05 06:48:00,
2013-04-05 03:03:00,38.2,30.0,29.96,SSW,213,2.0,-999.0,73,-99.99,,,0.01,weatherlink.com 1.10,2013-04-05 07:03:00,
2013-04-05 03:18:00,37.9,30.0,29.96,SSW,212,2.0,-999.0,74,-99.99,,,0.01,weatherlink.com 1.10,2013-04-05 07:18:00,
2013-04-05 03:48:00,37.4,29.0,29.94,SW,215,0.0,-999.0,73,-99.99,,,0.01,weatherlink.com 1.10,2013-04-05 07:48:00,
2013-04-05 04:03:00,37.4,30.0,29.93,South,181,1.0,-999.0,74,-99.99,,,0.01,weatherlink.com 1.10,2013-04-05 08:03:00,
2013-04-05 04:18:00,37.4,30.0,29.93,SSW,207,0.0,-999.0,74,-99.99,,,0.01,weatherlink.com 1.10,2013-04-05 08:18:00,
2013-04-05 04:33:00,37.5,30.0,29.93,SSW,194,5.0,-999.0,74,-99.99,,,0.01,weatherlink.com 1.10,2013-04-05 08:33:00,
2013-04-05 04:48:00,37.6,30.0,29.93,South,175,5.0,-999.0,74,-99.99,,,0.01,weatherlink.com 1.10,2013-04-05 08:48:00,
2013-04-05 05:03:00,37.6,30.0,29.91,South,177,7.0,-999.0,73,-99.99,,,0.01,weatherlink.com 1.10,2013-04-05 09:03:00,
2013-04-05 05:18:00,37.6,29.0,29.91,SSW,197,2.0,-999.0,72,-99.99,,,0.01,weatherlink.com 1.10,2013-04-05 09:18:00,
2013-04-05 05:33:00,37.5,30.0,29.91,SSW,208,2.0,-999.0,73,-99.99,,,0.01,weatherlink.com 1.10,2013-04-05 09:33:00,
2013-04-05 05:48:00,37.5,29.0,29.90,SSW,203,0.0,-999.0,72,-99.99,,,0.01,weatherlink.com 1.10,2013-04-05 09:48:00,
2013-04-05 06:03:00,37.2,29.0,29.90,SSW,196,0.0,-999.0,73,-99.99,,,0.01,weatherlink.com 1.10,2013-04-05 10:03:00,
2013-04-05 06:18:00,37.0,29.0,29.90,SSW,207,0.0,-999.0,73,-99.99,,,0.00,weatherlink.com 1.10,2013-04-05 10:18:00,
2013-04-05 06:33:00,36.9,29.0,29.90,SSW,205,0.0,-999.0,73,-99.99,,,0.00,weatherlink.com 1.10,2013-04-05 10:33:00,
2013-04-05 06:48:00,37.1,29.0,29.91,South,182,0.0,-999.0,73,-99.99,,,0.00,weatherlink.com 1.10,2013-04-05 10:48:00,
2013-04-05 07:03:00,37.5,29.0,29.91,SSW,206,2.0,-999.0,72,-99.99,,,0.00,weatherlink.com 1.10,2013-04-05 11:03:00,
2013-04-05 07:18:00,37.9,29.0,29.91,SSW,194,1.0,-999.0,71,-99.99,,,0.00,weatherlink.com 1.10,2013-04-05 11:18:00,
2013-04-05 07:33:00,38.2,29.0,29.90,SSW,212,4.0,-999.0,70,-99.99,,,0.00,weatherlink.com 1.10,2013-04-05 11:33:00,
2013-04-05 07:48:00,38.7,29.0,29.90,SSW,203,2.0,-999.0,68,-99.99,,,0.00,weatherlink.com 1.10,2013-04-05 11:48:00,
2013-04-05 08:19:00,39.7,29.0,29.89,South,175,6.0,-999.0,67,-99.99,,,0.00,weatherlink.com 1.10,2013-04-05 12:19:00,
2013-04-05 08:34:00,40.3,30.0,29.88,WSW,241,0.0,-999.0,66,-99.99,,,0.00,weatherlink.com 1.10,2013-04-05 12:34:00,
2013-04-05 08:49:00,41.0,30.0,29.88,SSW,208,2.0,-999.0,64,-99.99,,,0.00,weatherlink.com 1.10,2013-04-05 12:49:00,
2013-04-05 09:04:00,41.9,29.0,29.87,South,185,8.0,-999.0,61,-99.99,,,0.00,weatherlink.com 1.10,2013-04-05 13:04:00,
2013-04-05 09:19:00,42.7,28.0,29.86,South,178,5.0,-999.0,57,-99.99,,,0.00,weatherlink.com 1.10,2013-04-05 13:19:00,
2013-04-05 09:34:00,43.2,28.0,29.86,WSW,248,4.0,-999.0,56,-99.99,,,0.00,weatherlink.com 1.10,2013-04-05 13:34:00,
2013-04-05 09:49:00,43.1,28.0,29.85,SSW,208,4.0,-999.0,56,-99.99,,,0.00,weatherlink.com 1.10,2013-04-05 13:49:00,
2013-04-05 10:04:00,44.1,28.0,29.85,SSW,213,4.0,-999.0,53,-99.99,,,0.00,weatherlink.com 1.10,2013-04-05 14:04:00,
2013-04-05 10:21:00,44.8,27.0,29.84,SSW,213,2.0,-999.0,50,-99.99,,,0.00,weatherlink.com 1.10,2013-04-05 14:21:00,
2013-04-05 10:35:00,44.9,29.0,29.83,WSW,237,1.0,-999.0,53,-99.99,,,0.00,weatherlink.com 1.10,2013-04-05 14:35:00,
2013-04-05 10:50:00,45.9,29.0,29.82,SW,221,5.0,-999.0,52,-99.99,,,0.00,weatherlink.com 1.10,2013-04-05 14:50:00,
2013-04-05 11:04:00,46.3,28.0,29.81,SSW,199,2.0,-999.0,50,-99.99,,,0.00,weatherlink.com 1.10,2013-04-05 15:04:00,
2013-04-05 11:20:00,48.7,28.0,29.81,SSW,200,1.0,-999.0,45,-99.99,,,0.00,weatherlink.com 1.10,2013-04-05 15:20:00,
2013-04-05 11:35:00,48.2,29.0,29.80,SW,215,3.0,-999.0,48,-99.99,,,0.00,weatherlink.com 1.10,2013-04-05 15:35:00,
2013-04-05 11:50:00,48.9,28.0,29.80,South,188,0.0,-999.0,44,-99.99,,,0.00,weatherlink.com 1.10,2013-04-05 15:50:00,
2013-04-05 12:05:00,50.7,28.0,29.79,SSW,207,3.0,-999.0,41,-99.99,,,0.00,weatherlink.com 1.10,2013-04-05 16:05:00,
2013-04-05 12:20:00,51.1,28.0,29.77,SSW,208,3.0,-999.0,41,-99.99,,,0.00,weatherlink.com 1.10,2013-04-05 16:20:00,
2013-04-05 12:35:00,52.6,26.0,29.75,SW,217,2.0,-999.0,36,-99.99,,,0.00,weatherlink.com 1.10,2013-04-05 16:35:00,
2013-04-05 12:50:00,53.9,28.0,29.74,SSW,192,2.0,-999.0,37,-99.99,,,0.00,weatherlink.com 1.10,2013-04-05 16:50:00,
2013-04-05 13:05:00,55.5,27.0,29.73,SSE,157,1.0,-999.0,34,-99.99,,,0.01,weatherlink.com 1.10,2013-04-05 17:05:00,
2013-04-05 13:20:00,56.7,28.0,29.71,SSW,213,1.0,-999.0,33,-99.99,,,0.01,weatherlink.com 1.10,2013-04-05 17:20:00,
2013-04-05 13:35:00,56.2,25.0,29.70,SSW,205,0.0,-999.0,30,-99.99,,,0.01,weatherlink.com 1.10,2013-04-05 17:35:00,
2013-04-05 13:50:00,57.6,26.0,29.69,SW,228,1.0,-999.0,30,-99.99,,,0.01,weatherlink.com 1.10,2013-04-05 17:50:00,
2013-04-05 14:05:00,58.4,25.0,29.68,SW,230,0.0,-999.0,28,-99.99,,,0.01,weatherlink.com 1.10,2013-04-05 18:05:00,
2013-04-05 14:20:00,59.5,27.0,29.66,SSW,202,3.0,-999.0,29,-99.99,,,0.01,weatherlink.com 1.10,2013-04-05 18:20:00,
2013-04-05 14:50:00,61.7,21.0,29.64,WSW,240,0.0,-999.0,21,-99.99,,,0.01,weatherlink.com 1.10,2013-04-05 18:50:00,
2013-04-05 15:05:00,61.1,18.0,29.62,NNE,24,0.0,-999.0,19,-99.99,,,0.01,weatherlink.com 1.10,2013-04-05 19:05:00,
2013-04-05 15:20:00,61.2,22.0,29.62,NW,323,1.0,-999.0,22,-99.99,,,0.01,weatherlink.com 1.10,2013-04-05 19:20:00,
2013-04-05 15:35:00,62.0,25.0,29.62,SSW,194,2.0,-999.0,24,-99.99,,,0.01,weatherlink.com 1.10,2013-04-05 19:35:00,
2013-04-05 15:50:00,61.6,24.0,29.62,WSW,254,0.0,-999.0,24,-99.99,,,0.01,weatherlink.com 1.10,2013-04-05 19:50:00,
2013-04-05 16:05:00,61.6,24.0,29.62,WNW,302,3.0,-999.0,24,-99.99,,,0.01,weatherlink.com 1.10,2013-04-05 20:05:00,
2013-04-05 16:21:00,60.6,23.0,29.62,North,351,5.0,-999.0,24,-99.99,,,0.01,weatherlink.com 1.10,2013-04-05 20:21:00,
2013-04-05 16:35:00,59.9,24.0,29.62,East,96,2.0,-999.0,25,-99.99,,,0.01,weatherlink.com 1.10,2013-04-05 20:35:00,
2013-04-05 16:50:00,59.7,23.0,29.62,NW,308,3.0,-999.0,24,-99.99,,,0.01,weatherlink.com 1.10,2013-04-05 20:50:00,
2013-04-05 17:05:00,59.2,24.0,29.63,East,81,6.0,-999.0,26,-99.99,,,0.01,weatherlink.com 1.10,2013-04-05 21:05:00,
2013-04-05 17:21:00,58.3,24.0,29.64,NNW,327,1.0,-999.0,27,-99.99,,,0.01,weatherlink.com 1.10,2013-04-05 21:21:00,
2013-04-05 17:36:00,58.1,24.0,29.64,ENE,63,1.0,-999.0,27,-99.99,,,0.01,weatherlink.com 1.10,2013-04-05 21:36:00,
2013-04-05 17:51:00,56.6,24.0,29.65,SSW,194,0.0,-999.0,28,-99.99,,,0.01,weatherlink.com 1.10,2013-04-05 21:51:00,
2013-04-05 18:06:00,55.4,23.0,29.66,North,355,2.0,-999.0,28,-99.99,,,0.01,weatherlink.com 1.10,2013-04-05 22:06:00,
2013-04-05 18:21:00,54.8,23.0,29.67,NNW,340,1.0,-999.0,29,-99.99,,,0.01,weatherlink.com 1.10,2013-04-05 22:21:00,
2013-04-05 18:36:00,53.9,22.0,29.68,WSW,239,2.0,-999.0,29,-99.99,,,0.01,weatherlink.com 1.10,2013-04-05 22:36:00,
2013-04-05 18:51:00,53.3,22.0,29.69,NW,326,0.0,-999.0,29,-99.99,,,0.01,weatherlink.com 1.10,2013-04-05 22:51:00,
2013-04-05 19:06:00,52.7,21.0,29.70,NW,314,0.0,-999.0,29,-99.99,,,0.01,weatherlink.com 1.10,2013-04-05 23:06:00,
2013-04-05 19:21:00,51.9,21.0,29.71,North,360,1.0,-999.0,30,-99.99,,,0.01,weatherlink.com 1.10,2013-04-05 23:21:00,
2013-04-05 19:36:00,50.9,25.0,29.72,NNE,28,1.0,-999.0,37,-99.99,,,0.01,weatherlink.com 1.10,2013-04-05 23:36:00,
2013-04-05 19:51:00,49.8,26.0,29.73,NNE,24,4.0,-999.0,39,-99.99,,,0.01,weatherlink.com 1.10,2013-04-05 23:51:00,
2013-04-05 20:06:00,49.0,25.0,29.74,NNW,346,0.0,-999.0,40,-99.99,,,0.01,weatherlink.com 1.10,2013-04-06 00:06:00,
2013-04-05 20:21:00,48.1,26.0,29.76,NW,306,0.0,-999.0,42,-99.99,,,0.01,weatherlink.com 1.10,2013-04-06 00:21:00,
2013-04-05 20:36:00,47.3,25.0,29.77,NE,34,2.0,-999.0,42,-99.99,,,0.01,weatherlink.com 1.10,2013-04-06 00:36:00,
2013-04-05 20:51:00,46.5,24.0,29.79,East,94,0.0,-999.0,42,-99.99,,,0.01,weatherlink.com 1.10,2013-04-06 00:51:00,
2013-04-05 21:06:00,45.6,25.0,29.80,ENE,74,0.0,-999.0,45,-99.99,,,0.01,weatherlink.com 1.10,2013-04-06 01:06:00,
2013-04-05 21:36:00,43.6,27.0,29.82,NW,313,1.0,-999.0,52,-99.99,,,0.01,weatherlink.com 1.10,2013-04-06 01:36:00,
2013-04-05 21:51:00,42.6,27.0,29.84,ENE,74,5.0,-999.0,54,-99.99,,,0.01,weatherlink.com 1.10,2013-04-06 01:51:00,
2013-04-05 22:06:00,41.8,27.0,29.84,NE,53,3.0,-999.0,57,-99.99,,,0.01,weatherlink.com 1.10,2013-04-06 02:06:00,
2013-04-05 23:21:00,39.4,27.0,29.86,NE,55,0.0,-999.0,61,-99.99,,,0.01,weatherlink.com 1.10,2013-04-06 03:21:00,
2013-04-05 23:51:00,38.9,25.0,29.87,ENE,57,0.0,-999.0,59,-99.99,,,0.01,weatherlink.com 1.10,2013-04-06 03:51:00,